Terminal Aerodrome Forecast
Issued by NWS

Home | Current Version | Previous Version | Text Only | Print | Product List | Glossary On
Versions: 1 2 3 4 5 6 7 8 9 10 11 12 13 14 15 16
000
FTUS43 KMQT 061120
TAFCMX
TAF
KCMX 061120Z 0612/0712 15010KT P6SM OVC045
     FM061400 16013G20KT P6SM OVC025
     FM061500 16014G21KT P6SM OVC015
     FM061700 16013G20KT 5SM -DZ BR OVC020
     FM062000 19013KT 3SM -SN OVC025
     FM070000 23013G21KT P6SM VCSH BKN040
     FM070500 23011G19KT 6SM BLSN VCSH BKN045
     FM071100 24015G27KT 6SM -SHSN BLSN OVC020=

USA.gov is the U.S. government's official web portal to all federal, state and local government web resources and services.